Time;durP1;ratioP1;P1;durP2;ratioP2;P2;SDS_P1;SDS_P2;PMS_P1;PMS_P2;Temp;Humidity;BMP_temperature;BMP_pressure;BME280_temperature;BME280_humidity;BME280_pressure;Samples;Min_cycle;Max_cycle;Signal;HPM_P1;HPM_P2
2023/01/18 00:01:35;;;;;;;20.97;14.07;;;2.20;99.90;;;;;;5045849;28;20593;-33
2023/01/18 00:04:02;;;;;;;24.60;14.07;;;2.20;99.90;;;;;;5045648;28;20220;-33
2023/01/18 00:06:29;;;;;;;19.03;12.73;;;2.20;99.90;;;;;;5045797;28;20790;-33
2023/01/18 00:08:59;;;;;;;21.73;12.80;;;2.20;99.90;;;;;;5045835;28;20200;-33
2023/01/18 00:11:29;;;;;;;21.50;11.90;;;2.20;99.90;;;;;;5044289;28;20230;-33
2023/01/18 00:13:56;;;;;;;18.87;12.53;;;2.20;99.90;;;;;;5046150;28;21052;-33
2023/01/18 00:16:26;;;;;;;19.87;12.40;;;2.10;99.90;;;;;;5045499;28;20270;-33
2023/01/18 00:18:57;;;;;;;21.10;12.87;;;2.20;99.90;;;;;;5044322;28;20323;-33
2023/01/18 00:21:27;;;;;;;18.83;12.40;;;2.10;99.90;;;;;;5045688;28;20232;-33
2023/01/18 00:23:57;;;;;;;20.37;12.70;;;2.10;99.90;;;;;;5046826;28;20208;-33
2023/01/18 00:26:24;;;;;;;17.63;12.17;;;2.10;99.90;;;;;;5049378;28;20220;-33
2023/01/18 00:28:54;;;;;;;19.93;12.13;;;2.10;99.90;;;;;;5049587;28;20207;-33
2023/01/18 00:31:24;;;;;;;18.70;12.70;;;2.10;99.90;;;;;;5049661;28;20239;-33
2023/01/18 00:33:54;;;;;;;18.50;12.37;;;2.10;99.90;;;;;;5048374;28;20208;-33
2023/01/18 00:36:21;;;;;;;18.57;13.07;;;2.10;99.90;;;;;;5050343;28;20204;-33
2023/01/18 00:38:52;;;;;;;20.33;12.90;;;2.10;99.90;;;;;;5049463;28;20616;-34
2023/01/18 00:41:23;;;;;;;20.43;13.37;;;2.10;99.90;;;;;;5047646;28;20228;-33
2023/01/18 00:43:52;;;;;;;24.70;12.37;;;2.10;99.90;;;;;;5048315;28;20498;-33
2023/01/18 00:46:22;;;;;;;18.23;11.90;;;2.00;99.90;;;;;;5049818;28;20212;-33
2023/01/18 00:48:51;;;;;;;19.43;11.47;;;2.00;99.90;;;;;;5049589;28;20739;-33
2023/01/18 00:51:25;;;;;;;21.43;12.70;;;2.00;99.90;;;;;;5049939;28;20261;-33
2023/01/18 00:53:52;;;;;;;20.33;11.87;;;2.00;99.90;;;;;;5049614;28;20539;-33
2023/01/18 00:56:21;;;;;;;17.93;11.27;;;2.00;99.90;;;;;;5049271;28;20208;-33
2023/01/18 00:58:53;;;;;;;19.20;11.80;;;2.00;99.90;;;;;;5047831;28;20686;-33
2023/01/18 01:01:23;;;;;;;16.07;11.07;;;1.90;99.90;;;;;;5049279;28;20228;-33
2023/01/18 01:06:43;;;;;;;17.43;11.33;;;1.90;99.90;;;;;;5049209;28;20208;-33
2023/01/18 01:09:27;;;;;;;19.33;12.60;;;1.90;99.90;;;;;;5049864;28;20203;-33
2023/01/18 01:26:09;;;;;;;22.80;14.53;;;1.90;99.90;;;;;;5048534;28;20246;-33
2023/01/18 01:28:41;;;;;;;24.90;13.50;;;1.80;99.90;;;;;;5048334;28;20282;-33
2023/01/18 01:31:12;;;;;;;19.27;13.37;;;1.80;99.90;;;;;;5048246;28;20226;-33
2023/01/18 01:33:44;;;;;;;22.27;13.97;;;1.80;99.90;;;;;;5048178;28;20192;-33
2023/01/18 01:36:16;;;;;;;19.87;13.63;;;1.80;99.90;;;;;;5048040;28;20235;-33
2023/01/18 01:38:46;;;;;;;24.90;14.80;;;1.80;99.90;;;;;;5048131;28;20678;-33
2023/01/18 01:41:31;;;;;;;23.37;14.53;;;1.80;99.90;;;;;;5048014;28;20232;-33
2023/01/18 01:44:32;;;;;;;22.83;14.60;;;1.80;99.90;;;;;;5047963;28;20202;-33
2023/01/18 01:47:23;;;;;;;21.77;14.43;;;1.70;99.90;;;;;;5044389;28;20231;-33
2023/01/18 01:49:58;;;;;;;21.83;14.00;;;1.70;99.90;;;;;;5046361;28;20262;-33
2023/01/18 01:52:34;;;;;;;21.97;15.30;;;1.70;99.90;;;;;;5047725;28;20236;-33
2023/01/18 01:55:12;;;;;;;21.17;14.37;;;1.70;99.90;;;;;;5048058;28;20281;-33
2023/01/18 01:57:59;;;;;;;21.63;14.33;;;1.70;99.90;;;;;;5047323;28;20212;-33
2023/01/18 02:00:26;;;;;;;20.03;14.57;;;1.60;99.90;;;;;;5051899;28;20332;-33
2023/01/18 02:03:00;;;;;;;23.57;14.97;;;1.60;99.90;;;;;;5047481;28;20267;-33
2023/01/18 02:05:33;;;;;;;20.67;14.50;;;1.60;99.90;;;;;;5047498;28;20642;-34
2023/01/18 02:08:01;;;;;;;22.63;13.57;;;1.60;99.90;;;;;;5047823;28;20204;-33
2023/01/18 02:10:34;;;;;;;23.30;14.30;;;1.60;99.90;;;;;;5047506;28;20201;-33
2023/01/18 02:13:09;;;;;;;22.03;13.43;;;1.60;99.90;;;;;;5059819;28;20222;-33
2023/01/18 02:15:48;;;;;;;23.57;14.97;;;1.50;99.90;;;;;;5047440;28;20804;-33
2023/01/18 02:18:15;;;;;;;24.27;14.60;;;1.50;99.90;;;;;;5045909;28;20675;-33
2023/01/18 02:21:22;;;;;;;20.00;13.40;;;1.50;99.90;;;;;;5047341;28;20543;-33
2023/01/18 02:24:10;;;;;;;22.27;15.07;;;1.50;99.90;;;;;;5064161;28;20628;-33
2023/01/18 02:26:52;;;;;;;22.90;15.07;;;1.50;99.90;;;;;;5061969;28;20208;-33
2023/01/18 02:29:52;;;;;;;19.87;13.93;;;1.40;99.90;;;;;;5046266;28;20200;-33
2023/01/18 02:32:43;;;;;;;22.93;14.37;;;1.40;99.90;;;;;;5047370;28;20749;-33
2023/01/18 02:35:24;;;;;;;23.97;14.93;;;1.40;99.90;;;;;;5047131;28;20215;-33
2023/01/18 02:37:57;;;;;;;23.07;15.40;;;1.40;99.90;;;;;;5047347;28;20302;-33
2023/01/18 02:40:50;;;;;;;22.63;15.37;;;1.40;99.90;;;;;;5047045;28;20303;-33
2023/01/18 02:48:57;;;;;;;24.67;15.33;;;1.40;99.90;;;;;;5046903;28;20751;-33
2023/01/18 02:51:29;;;;;;;26.33;16.00;;;1.30;99.90;;;;;;5046638;28;20205;-33
2023/01/18 02:53:56;;;;;;;24.43;15.40;;;1.30;99.90;;;;;;5047115;28;20602;-33
2023/01/18 02:56:29;;;;;;;22.27;15.13;;;1.30;99.90;;;;;;5047217;28;20957;-33
2023/01/18 02:59:08;;;;;;;24.93;14.97;;;1.30;99.90;;;;;;5046642;28;20249;-33
2023/01/18 03:01:51;;;;;;;23.87;14.83;;;1.30;99.90;;;;;;5029056;28;20231;-33
2023/01/18 03:04:30;;;;;;;23.73;14.67;;;1.30;99.90;;;;;;5045378;28;20196;-33
2023/01/18 03:07:10;;;;;;;24.70;15.80;;;1.30;99.90;;;;;;5046559;28;20690;-33
2023/01/18 03:09:45;;;;;;;26.90;16.10;;;1.30;99.90;;;;;;5045082;28;20755;-33
2023/01/18 03:12:44;;;;;;;22.63;15.40;;;1.30;99.90;;;;;;5046649;28;20266;-33
2023/01/18 03:15:27;;;;;;;25.07;15.40;;;1.30;99.90;;;;;;5047094;28;20196;-33
2023/01/18 03:18:08;;;;;;;26.97;15.93;;;1.30;99.90;;;;;;5046315;28;20202;-33
2023/01/18 03:20:40;;;;;;;23.23;15.00;;;1.30;99.90;;;;;;5044837;28;20216;-33
2023/01/18 03:23:37;;;;;;;25.37;15.80;;;1.30;99.90;;;;;;5044861;28;20235;-33
2023/01/18 03:26:25;;;;;;;25.40;16.33;;;1.30;99.90;;;;;;5046315;28;20618;-33
2023/01/18 03:35:06;;;;;;;24.13;15.73;;;1.30;99.90;;;;;;5046154;28;20220;-33
2023/01/18 03:37:41;;;;;;;24.57;15.63;;;1.30;99.90;;;;;;5044519;28;20766;-33
2023/01/18 03:40:21;;;;;;;25.43;15.80;;;1.30;99.90;;;;;;5046425;28;20444;-33
2023/01/18 03:43:15;;;;;;;24.50;15.70;;;1.30;99.90;;;;;;5046049;28;20204;-33
2023/01/18 03:45:51;;;;;;;25.90;15.47;;;1.30;99.90;;;;;;5045783;28;20236;-33
2023/01/18 03:48:21;;;;;;;23.87;15.20;;;1.30;99.90;;;;;;5044546;28;20250;-33
2023/01/18 03:50:59;;;;;;;21.90;14.87;;;1.20;99.90;;;;;;5045584;28;20200;-33
2023/01/18 03:53:44;;;;;;;24.40;14.73;;;1.20;99.90;;;;;;5045942;28;20287;-33
2023/01/18 03:56:35;;;;;;;22.00;14.47;;;1.20;99.90;;;;;;5046352;28;20685;-33
2023/01/18 03:59:04;;;;;;;23.13;14.50;;;1.20;99.90;;;;;;5045649;28;20315;-33
2023/01/18 04:01:31;;;;;;;22.80;13.60;;;1.20;99.90;;;;;;5045626;28;20816;-33
2023/01/18 04:04:04;;;;;;;20.30;13.37;;;1.20;99.90;;;;;;5045796;28;20224;-33
2023/01/18 04:06:35;;;;;;;22.70;13.73;;;1.20;99.90;;;;;;5045793;28;20581;-33
2023/01/18 04:09:07;;;;;;;22.47;14.17;;;1.10;99.90;;;;;;5045943;28;20200;-33
2023/01/18 04:11:36;;;;;;;23.53;14.30;;;1.10;99.90;;;;;;5046326;28;20256;-33
2023/01/18 04:14:06;;;;;;;21.67;14.20;;;1.10;99.90;;;;;;5046309;28;20314;-33
2023/01/18 04:16:33;;;;;;;21.50;12.50;;;1.10;99.90;;;;;;5045583;28;20255;-33
2023/01/18 04:19:00;;;;;;;21.07;13.93;;;1.10;99.90;;;;;;5045758;28;20243;-33
2023/01/18 04:21:32;;;;;;;26.37;13.47;;;1.10;99.90;;;;;;5045586;28;20199;-33
2023/01/18 04:24:04;;;;;;;19.37;12.60;;;1.20;99.90;;;;;;5045468;28;20287;-33
2023/01/18 04:26:33;;;;;;;24.17;13.53;;;1.10;99.90;;;;;;5045371;28;20273;-33
2023/01/18 04:29:08;;;;;;;25.63;14.07;;;1.10;99.90;;;;;;5045530;28;20206;-33
2023/01/18 04:31:35;;;;;;;19.33;12.33;;;1.10;99.90;;;;;;5045941;28;20215;-33
2023/01/18 04:34:07;;;;;;;25.10;13.63;;;1.10;99.90;;;;;;5046041;28;20216;-33
2023/01/18 04:36:34;;;;;;;20.73;12.50;;;1.10;99.90;;;;;;5045423;28;20208;-33
2023/01/18 04:39:06;;;;;;;18.67;12.87;;;1.10;99.90;;;;;;5045780;28;20202;-33
2023/01/18 04:41:35;;;;;;;21.30;12.77;;;1.10;99.90;;;;;;5045374;28;20200;-33
2023/01/18 04:44:04;;;;;;;20.33;12.33;;;1.10;99.90;;;;;;5045541;28;20745;-33
2023/01/18 04:46:35;;;;;;;21.53;12.00;;;1.10;99.90;;;;;;5045379;28;20291;-33
2023/01/18 04:49:07;;;;;;;22.47;12.60;;;1.20;99.90;;;;;;5045745;28;20593;-33
2023/01/18 04:51:37;;;;;;;19.60;12.90;;;1.10;99.90;;;;;;5044048;28;20335;-33
2023/01/18 04:54:07;;;;;;;20.87;12.97;;;1.10;99.90;;;;;;5045476;28;20311;-33
2023/01/18 04:56:37;;;;;;;20.03;11.30;;;1.10;99.90;;;;;;5045608;28;20652;-33
2023/01/18 04:59:06;;;;;;;19.70;12.50;;;1.10;99.90;;;;;;5044005;28;20254;-33
2023/01/18 05:01:35;;;;;;;20.30;12.83;;;1.10;99.90;;;;;;5045139;28;20689;-33
2023/01/18 05:04:05;;;;;;;21.07;12.27;;;1.10;99.90;;;;;;5044937;28;20248;-33
2023/01/18 05:06:32;;;;;;;17.57;11.40;;;1.10;99.90;;;;;;5045243;28;20385;-33
2023/01/18 05:09:04;;;;;;;21.27;11.73;;;1.10;99.90;;;;;;5045039;28;20220;-33
2023/01/18 05:11:33;;;;;;;16.70;11.23;;;1.10;99.90;;;;;;5048412;28;20241;-33
2023/01/18 05:14:00;;;;;;;17.40;11.83;;;1.10;99.90;;;;;;5048976;28;20603;-33
2023/01/18 05:16:27;;;;;;;18.03;11.37;;;1.10;99.90;;;;;;5048481;28;20208;-33
2023/01/18 05:18:58;;;;;;;18.20;11.03;;;1.10;99.90;;;;;;5048722;28;20200;-33
2023/01/18 05:21:25;;;;;;;16.13;11.33;;;1.00;99.90;;;;;;5048340;28;20270;-33
2023/01/18 05:23:53;;;;;;;19.93;11.07;;;1.00;99.90;;;;;;5048349;28;20293;-33
2023/01/18 05:26:22;;;;;;;19.10;12.40;;;1.00;99.90;;;;;;5048489;28;20196;-33
2023/01/18 05:28:54;;;;;;;19.10;11.87;;;1.00;99.90;;;;;;5048319;28;20621;-33
2023/01/18 05:31:22;;;;;;;17.33;11.00;;;1.00;99.90;;;;;;5046882;28;20228;-33
2023/01/18 05:33:49;;;;;;;17.80;12.27;;;1.00;99.90;;;;;;5048183;28;20238;-33
2023/01/18 05:36:19;;;;;;;17.03;12.10;;;1.00;99.90;;;;;;5048438;28;20670;-33
2023/01/18 05:38:48;;;;;;;19.93;11.27;;;1.00;99.90;;;;;;5046566;28;20219;-33
2023/01/18 05:41:16;;;;;;;21.23;11.67;;;1.00;99.90;;;;;;5047986;28;20262;-33
2023/01/18 05:43:43;;;;;;;18.97;11.10;;;1.00;99.90;;;;;;5046434;28;20228;-32
2023/01/18 05:46:12;;;;;;;20.77;11.50;;;1.00;99.90;;;;;;5048178;28;20236;-33
2023/01/18 05:48:39;;;;;;;16.70;11.50;;;1.00;99.90;;;;;;5047952;28;20564;-33
2023/01/18 05:51:09;;;;;;;19.27;12.13;;;1.00;99.90;;;;;;5048320;28;20204;-33
2023/01/18 05:53:37;;;;;;;16.60;11.67;;;1.00;99.90;;;;;;5046528;28;20204;-33
2023/01/18 05:56:07;;;;;;;19.00;11.00;;;1.00;99.90;;;;;;5046045;28;20223;-33
2023/01/18 05:58:37;;;;;;;16.87;11.63;;;1.00;99.90;;;;;;5047905;28;20573;-33
2023/01/18 06:01:07;;;;;;;19.40;12.10;;;1.00;99.90;;;;;;5047826;28;20252;-33
2023/01/18 06:03:37;;;;;;;15.73;11.90;;;1.00;99.90;;;;;;5047512;28;20317;-33
2023/01/18 06:06:04;;;;;;;18.93;11.50;;;1.00;99.90;;;;;;5048018;28;20224;-33
2023/01/18 06:08:34;;;;;;;21.77;12.37;;;1.10;99.90;;;;;;5046075;28;20196;-33
2023/01/18 06:11:01;;;;;;;16.13;11.53;;;1.10;99.90;;;;;;5047783;28;20216;-32
2023/01/18 06:13:30;;;;;;;19.63;12.10;;;1.10;99.90;;;;;;5047841;28;20678;-33
2023/01/18 06:16:01;;;;;;;17.67;11.67;;;1.10;99.90;;;;;;5047317;28;20660;-33
2023/01/18 06:18:31;;;;;;;16.87;11.43;;;1.00;99.90;;;;;;5045861;28;20988;-33
2023/01/18 06:21:02;;;;;;;17.47;11.70;;;1.00;99.90;;;;;;5045713;28;20235;-32
2023/01/18 06:23:34;;;;;;;16.10;11.30;;;1.00;99.90;;;;;;5045703;28;20228;-32
2023/01/18 06:26:03;;;;;;;18.23;11.47;;;1.00;99.90;;;;;;5047591;28;20251;-33
2023/01/18 06:28:30;;;;;;;18.97;11.80;;;1.00;99.90;;;;;;5047304;28;20623;-33
2023/01/18 06:30:58;;;;;;;19.77;11.87;;;1.00;99.90;;;;;;5047052;28;20242;-33
2023/01/18 06:33:25;;;;;;;17.33;11.37;;;1.00;99.90;;;;;;5047058;28;20196;-33
2023/01/18 06:35:56;;;;;;;17.13;11.40;;;1.00;99.90;;;;;;5047147;28;20196;-33
2023/01/18 06:38:24;;;;;;;18.47;12.17;;;1.00;99.90;;;;;;5045498;28;20211;-33
2023/01/18 06:40:51;;;;;;;17.00;11.43;;;1.00;99.90;;;;;;5047331;28;20262;-33
2023/01/18 06:43:24;;;;;;;19.40;12.70;;;1.00;99.90;;;;;;5047187;28;20333;-32
2023/01/18 06:45:57;;;;;;;18.27;11.73;;;1.00;99.90;;;;;;5046959;28;20287;-33
2023/01/18 06:48:26;;;;;;;17.47;11.43;;;1.00;99.90;;;;;;5047541;28;20212;-33
2023/01/18 06:50:56;;;;;;;19.27;11.77;;;1.00;99.90;;;;;;5047484;28;20686;-32
2023/01/18 06:53:26;;;;;;;20.17;12.93;;;1.00;99.90;;;;;;5029556;28;20754;-32
2023/01/18 06:55:55;;;;;;;16.20;11.37;;;1.00;99.90;;;;;;5047316;28;20291;-32
2023/01/18 06:58:26;;;;;;;17.70;12.17;;;1.00;99.90;;;;;;5047261;28;20254;-32
2023/01/18 07:00:57;;;;;;;16.23;12.07;;;1.00;99.90;;;;;;5046010;28;20262;-33
2023/01/18 07:03:26;;;;;;;20.10;12.27;;;1.00;99.90;;;;;;5045819;28;20232;-32
2023/01/18 07:06:02;;;;;;;19.17;11.93;;;1.00;99.90;;;;;;5047016;28;20212;-32
2023/01/18 07:08:30;;;;;;;18.63;12.40;;;1.10;99.90;;;;;;5047049;28;20258;-32
2023/01/18 07:10:58;;;;;;;19.93;12.57;;;1.10;99.90;;;;;;5046643;28;20192;-32
2023/01/18 07:13:25;;;;;;;21.33;12.03;;;1.10;99.90;;;;;;5028883;28;20561;-32
2023/01/18 07:15:55;;;;;;;20.27;12.77;;;1.10;99.90;;;;;;5046901;28;20345;-32
2023/01/18 07:18:29;;;;;;;20.03;12.77;;;1.10;99.90;;;;;;5045569;28;20208;-32
2023/01/18 07:21:05;;;;;;;17.87;13.20;;;1.10;99.90;;;;;;5045397;28;20196;-33
2023/01/18 07:23:38;;;;;;;20.60;12.67;;;1.10;99.90;;;;;;5046629;28;20389;-32
2023/01/18 07:26:14;;;;;;;17.57;12.73;;;1.20;99.90;;;;;;5046746;28;20223;-32
2023/01/18 07:28:43;;;;;;;19.80;12.93;;;1.20;99.90;;;;;;5046827;28;20247;-33
2023/01/18 07:31:16;;;;;;;16.43;12.17;;;1.20;99.90;;;;;;5046775;28;20227;-32
2023/01/18 07:33:48;;;;;;;18.23;11.97;;;1.20;99.90;;;;;;5046201;28;20631;-32
2023/01/18 07:36:15;;;;;;;20.90;12.77;;;1.10;99.90;;;;;;5046778;28;20208;-32
2023/01/18 07:38:46;;;;;;;19.23;12.33;;;1.10;99.90;;;;;;5046376;28;20682;-32
2023/01/18 07:41:14;;;;;;;17.47;11.60;;;1.10;99.90;;;;;;5044980;28;20231;-32
2023/01/18 07:43:43;;;;;;;21.30;12.30;;;1.10;99.90;;;;;;5046470;28;20224;-32
2023/01/18 07:46:19;;;;;;;21.40;13.03;;;1.10;99.90;;;;;;5045071;28;20232;-32
2023/01/18 07:48:49;;;;;;;24.00;14.23;;;1.10;99.90;;;;;;5046583;28;20218;-32
2023/01/18 07:51:23;;;;;;;18.67;12.73;;;1.10;99.90;;;;;;5044770;28;20270;-32
2023/01/18 07:53:56;;;;;;;19.53;12.63;;;1.10;99.90;;;;;;5046653;28;20683;-32
2023/01/18 07:56:24;;;;;;;20.63;13.50;;;1.20;99.90;;;;;;5044420;28;20698;-33
2023/01/18 07:58:54;;;;;;;18.53;12.63;;;1.20;99.90;;;;;;5046009;28;20202;-32
2023/01/18 08:01:22;;;;;;;20.73;13.57;;;1.20;99.90;;;;;;5044332;28;20203;-32
2023/01/18 08:03:50;;;;;;;21.37;13.67;;;1.20;99.90;;;;;;5046883;28;20224;-32
2023/01/18 08:06:25;;;;;;;20.00;12.97;;;1.20;99.90;;;;;;5044989;28;20208;-32
2023/01/18 08:08:55;;;;;;;20.07;13.00;;;1.20;99.90;;;;;;5046190;28;20234;-32
2023/01/18 08:11:23;;;;;;;20.67;12.70;;;1.20;99.90;;;;;;5046015;28;20273;-32
2023/01/18 08:13:55;;;;;;;17.33;12.40;;;1.30;99.90;;;;;;5045776;28;20750;-32
2023/01/18 08:16:25;;;;;;;18.43;12.50;;;1.30;99.90;;;;;;5046141;28;20208;-33
2023/01/18 08:18:52;;;;;;;21.23;13.03;;;1.30;99.90;;;;;;5045891;28;20295;-32
2023/01/18 08:21:20;;;;;;;19.00;12.33;;;1.30;99.90;;;;;;5044592;28;20746;-32
2023/01/18 08:23:50;;;;;;;21.57;13.30;;;1.30;99.90;;;;;;5046276;28;20224;-32
2023/01/18 08:26:19;;;;;;;20.27;13.50;;;1.40;99.90;;;;;;5045881;28;20199;-32
2023/01/18 08:28:46;;;;;;;18.97;12.67;;;1.40;99.90;;;;;;5046064;28;20296;-32
2023/01/18 08:31:20;;;;;;;18.73;12.53;;;1.40;99.90;;;;;;5045482;28;20204;-33
2023/01/18 08:33:48;;;;;;;22.43;12.97;;;1.50;99.90;;;;;;5043983;28;20299;-32
2023/01/18 08:36:19;;;;;;;22.63;13.57;;;1.50;99.90;;;;;;5045858;28;20586;-32
2023/01/18 08:38:55;;;;;;;20.37;12.73;;;1.50;99.90;;;;;;5045913;28;20205;-32
2023/01/18 08:41:27;;;;;;;18.30;13.00;;;1.50;99.90;;;;;;5045778;28;20239;-32
2023/01/18 08:43:55;;;;;;;21.67;13.33;;;1.60;99.90;;;;;;5047398;28;20226;-32
2023/01/18 08:46:23;;;;;;;22.43;13.50;;;1.60;99.90;;;;;;5049308;28;20211;-32
2023/01/18 08:48:55;;;;;;;19.47;12.73;;;1.60;99.90;;;;;;5048979;28;20220;-32
2023/01/18 08:51:24;;;;;;;20.60;12.93;;;1.60;99.90;;;;;;5048763;28;20246;-32
2023/01/18 08:53:55;;;;;;;22.13;13.70;;;1.60;99.90;;;;;;5049268;28;20651;-32
2023/01/18 08:56:25;;;;;;;24.20;13.47;;;1.70;99.90;;;;;;5048970;28;20204;-32
2023/01/18 08:58:58;;;;;;;21.10;12.37;;;1.70;99.90;;;;;;5049209;28;20208;-32
2023/01/18 09:01:26;;;;;;;24.03;13.43;;;1.70;99.90;;;;;;5048826;28;20220;-32
2023/01/18 09:03:57;;;;;;;21.13;13.33;;;1.70;99.90;;;;;;5048819;28;20239;-32
2023/01/18 09:06:30;;;;;;;21.60;12.70;;;1.70;99.90;;;;;;5048880;28;20231;-32
2023/01/18 09:08:58;;;;;;;20.63;13.00;;;1.70;99.90;;;;;;5048705;28;20210;-32
2023/01/18 09:11:28;;;;;;;23.50;13.63;;;1.80;99.90;;;;;;5048523;28;20203;-32
2023/01/18 09:14:01;;;;;;;19.90;13.10;;;1.80;99.90;;;;;;5048691;28;20246;-32
2023/01/18 09:16:30;;;;;;;21.70;13.43;;;1.80;99.90;;;;;;5049048;28;20211;-32
2023/01/18 09:19:00;;;;;;;20.93;13.63;;;1.90;99.90;;;;;;5049335;28;20572;-32
2023/01/18 09:21:30;;;;;;;20.53;13.60;;;1.90;99.90;;;;;;5049509;28;20209;-32
2023/01/18 09:23:59;;;;;;;22.63;14.37;;;2.00;99.90;;;;;;5049067;28;20338;-32
2023/01/18 09:26:29;;;;;;;22.50;14.10;;;2.00;99.90;;;;;;5048918;28;20250;-32
2023/01/18 09:28:57;;;;;;;21.90;13.83;;;2.00;99.90;;;;;;5048925;28;20262;-32
2023/01/18 09:31:25;;;;;;;23.63;14.10;;;2.10;99.90;;;;;;5048727;28;20639;-32
2023/01/18 09:33:54;;;;;;;22.80;14.03;;;2.10;99.90;;;;;;5049359;28;20203;-32
2023/01/18 09:36:26;;;;;;;21.67;14.47;;;2.20;99.90;;;;;;5047217;28;20964;-32
2023/01/18 09:38:58;;;;;;;24.17;14.33;;;2.20;99.90;;;;;;5048329;28;20235;-32
2023/01/18 09:41:46;;;;;;;21.37;14.23;;;2.20;99.90;;;;;;5047641;28;20208;-32
2023/01/18 09:44:16;;;;;;;22.60;14.03;;;2.30;99.90;;;;;;5048635;28;20220;-32
2023/01/18 09:46:53;;;;;;;22.63;13.97;;;2.40;99.90;;;;;;5048340;28;20200;-32
2023/01/18 09:49:31;;;;;;;20.83;13.10;;;2.40;99.90;;;;;;5030815;28;20211;-32
2023/01/18 09:52:11;;;;;;;21.80;13.50;;;2.50;99.90;;;;;;5048655;28;20999;-32
2023/01/18 09:54:52;;;;;;;19.73;14.00;;;2.50;99.90;;;;;;5046873;28;20436;-32
2023/01/18 09:57:29;;;;;;;24.93;14.50;;;2.50;99.90;;;;;;5046405;28;20207;-32
2023/01/18 10:00:03;;;;;;;25.33;15.43;;;2.50;99.90;;;;;;5046905;28;20222;-32
2023/01/18 10:02:40;;;;;;;24.23;14.10;;;2.50;99.90;;;;;;5046563;28;20723;-32
2023/01/18 10:05:14;;;;;;;21.77;14.10;;;2.50;99.90;;;;;;5046732;28;20526;-32
2023/01/18 10:08:01;;;;;;;27.03;14.30;;;2.60;99.90;;;;;;5048001;28;20303;-32
2023/01/18 10:10:39;;;;;;;26.43;13.57;;;2.60;99.90;;;;;;5048106;28;20693;-32
2023/01/18 10:13:42;;;;;;;22.63;14.10;;;2.60;99.90;;;;;;5048100;28;20200;-32
2023/01/18 10:16:13;;;;;;;22.40;14.50;;;2.60;99.90;;;;;;5047874;28;20266;-32
2023/01/18 10:18:47;;;;;;;21.47;13.33;;;2.60;99.90;;;;;;5048047;28;20196;-32
2023/01/18 10:21:47;;;;;;;20.87;13.27;;;2.70;99.90;;;;;;5047996;28;20204;-32
2023/01/18 10:24:22;;;;;;;19.80;12.67;;;2.70;99.90;;;;;;5047770;28;20219;-32
2023/01/18 10:26:55;;;;;;;22.50;13.00;;;2.70;99.90;;;;;;5047766;28;20212;-32
2023/01/18 10:29:56;;;;;;;19.80;13.10;;;2.70;99.90;;;;;;5047473;28;20199;-32
2023/01/18 10:32:26;;;;;;;19.60;12.53;;;2.80;99.90;;;;;;5047517;28;20686;-32
2023/01/18 10:34:57;;;;;;;20.37;12.90;;;2.80;99.90;;;;;;5047595;28;20217;-32
2023/01/18 10:37:44;;;;;;;20.90;12.57;;;2.90;99.90;;;;;;5047608;28;20633;-32
2023/01/18 10:40:13;;;;;;;18.70;12.50;;;2.90;99.90;;;;;;5047980;28;20203;-32
2023/01/18 10:42:49;;;;;;;21.83;12.20;;;3.00;99.90;;;;;;5047237;28;20567;-32
2023/01/18 10:45:26;;;;;;;24.57;12.90;;;3.00;99.90;;;;;;5047350;28;20266;-32
2023/01/18 10:47:56;;;;;;;19.03;12.50;;;3.10;99.90;;;;;;5047381;28;20200;-32
2023/01/18 10:50:36;;;;;;;19.40;12.13;;;3.00;99.90;;;;;;5047337;28;20239;-32
2023/01/18 10:53:26;;;;;;;18.43;11.77;;;3.10;99.90;;;;;;5047294;28;20258;-32
2023/01/18 10:56:08;;;;;;;15.60;10.97;;;3.10;99.90;;;;;;5047320;28;20337;-32
2023/01/18 10:58:49;;;;;;;19.53;11.80;;;3.20;99.90;;;;;;5047041;28;20196;-32
2023/01/18 11:01:51;;;;;;;16.83;11.33;;;3.20;99.90;;;;;;5046892;28;20208;-32
2023/01/18 11:04:27;;;;;;;19.17;10.97;;;3.20;99.90;;;;;;5046847;28;20211;-32
2023/01/18 11:07:00;;;;;;;17.20;10.70;;;3.30;99.90;;;;;;5046274;28;20220;-32
2023/01/18 11:09:33;;;;;;;15.37;10.33;;;3.30;99.90;;;;;;5046885;28;20212;-32
2023/01/18 11:12:33;;;;;;;15.13;9.43;;;3.30;99.90;;;;;;5046788;28;20196;-32
2023/01/18 11:15:17;;;;;;;19.03;10.87;;;3.40;99.90;;;;;;5046277;28;20212;-32
2023/01/18 11:18:02;;;;;;;18.90;9.80;;;3.50;99.90;;;;;;5047049;28;20195;-32
2023/01/18 11:20:46;;;;;;;11.80;8.63;;;3.60;99.90;;;;;;5046523;28;20220;-32
2023/01/18 11:23:35;;;;;;;13.17;8.77;;;3.60;99.90;;;;;;5046556;28;20199;-32
2023/01/18 11:26:17;;;;;;;15.27;8.70;;;3.60;99.90;;;;;;5046649;28;20630;-32
2023/01/18 11:29:05;;;;;;;15.17;7.83;;;3.70;99.90;;;;;;5045677;28;20660;-32
2023/01/18 11:31:45;;;;;;;14.73;7.97;;;3.80;99.90;;;;;;5046292;28;20683;-32
2023/01/18 11:34:31;;;;;;;11.13;7.70;;;3.80;99.90;;;;;;5046369;28;20204;-31
2023/01/18 11:37:21;;;;;;;15.50;7.20;;;3.90;99.90;;;;;;5046558;28;20250;-31
2023/01/18 11:39:49;;;;;;;19.77;7.53;;;3.90;99.90;;;;;;5046070;28;20203;-31
2023/01/18 11:42:30;;;;;;;14.53;8.13;;;3.90;99.90;;;;;;5046533;28;20208;-31
2023/01/18 11:45:00;;;;;;;14.67;7.50;;;4.00;99.90;;;;;;5028611;28;20223;-31
2023/01/18 11:47:49;;;;;;;11.30;7.20;;;4.00;99.90;;;;;;5046181;28;20219;-31
2023/01/18 11:50:35;;;;;;;13.10;6.80;;;4.10;99.90;;;;;;5046047;28;20203;-31
2023/01/18 11:53:29;;;;;;;9.50;5.93;;;4.20;99.90;;;;;;5044480;28;20334;-31
2023/01/18 11:56:20;;;;;;;7.67;5.00;;;4.30;99.90;;;;;;5046362;28;20592;-31
2023/01/18 11:58:52;;;;;;;9.97;5.30;;;4.30;99.90;;;;;;5046141;28;20291;-31
2023/01/18 12:01:42;;;;;;;8.90;4.53;;;4.30;99.90;;;;;;5046117;28;20204;-31
2023/01/18 12:04:16;;;;;;;10.60;5.10;;;4.30;99.90;;;;;;5046199;28;20236;-31
2023/01/18 12:07:10;;;;;;;6.50;4.20;;;4.40;99.90;;;;;;5046405;28;20667;-31
2023/01/18 12:10:02;;;;;;;6.83;4.30;;;4.40;99.90;;;;;;5044398;28;20208;-32
2023/01/18 12:12:34;;;;;;;7.93;3.97;;;4.50;99.90;;;;;;5046020;28;20559;-31
2023/01/18 12:15:40;;;;;;;7.03;3.70;;;4.50;99.90;;;;;;5046128;28;20207;-31
2023/01/18 12:18:11;;;;;;;7.27;3.50;;;4.60;99.90;;;;;;5044766;28;20211;-31
2023/01/18 12:20:45;;;;;;;5.60;3.73;;;4.60;99.90;;;;;;5048510;28;20227;-31
2023/01/18 12:23:54;;;;;;;7.30;4.27;;;4.60;99.90;;;;;;5049593;28;20222;-31
2023/01/18 12:27:01;;;;;;;8.97;3.63;;;4.70;99.90;;;;;;5049809;28;20204;-31
2023/01/18 12:29:43;;;;;;;8.07;3.30;;;4.70;99.90;;;;;;5050181;28;20269;-31
2023/01/18 12:32:29;;;;;;;6.23;3.60;;;4.80;99.90;;;;;;5048714;28;20207;-31
2023/01/18 12:34:59;;;;;;;5.47;3.70;;;4.80;99.90;;;;;;5050176;28;20224;-31
2023/01/18 12:37:54;;;;;;;9.10;4.13;;;4.80;99.90;;;;;;5050587;28;20566;-31
2023/01/18 12:40:57;;;;;;;7.40;3.53;;;4.80;99.90;;;;;;5047659;28;20213;-31
2023/01/18 12:43:30;;;;;;;6.07;2.97;;;4.90;99.90;;;;;;5048332;28;20206;-31
2023/01/18 12:46:13;;;;;;;9.33;4.23;;;4.90;99.90;;;;;;5049462;28;20224;-31
2023/01/18 12:48:50;;;;;;;7.93;3.77;;;4.90;99.90;;;;;;5049274;28;20206;-31
2023/01/18 12:51:21;;;;;;;7.77;3.47;;;5.00;99.90;;;;;;5049415;28;20757;-31
2023/01/18 12:54:00;;;;;;;7.37;3.17;;;5.00;99.90;;;;;;5049432;28;21002;-31
2023/01/18 12:56:38;;;;;;;4.63;3.03;;;5.00;99.90;;;;;;5049122;28;20571;-31
2023/01/18 12:59:27;;;;;;;7.20;3.00;;;5.10;99.90;;;;;;5049516;28;20212;-31
2023/01/18 13:02:01;;;;;;;7.50;3.37;;;5.10;99.90;;;;;;5049449;28;20297;-31
2023/01/18 13:04:41;;;;;;;4.43;2.63;;;5.20;99.90;;;;;;5048965;28;20215;-31
2023/01/18 13:07:13;;;;;;;8.90;3.07;;;5.10;99.90;;;;;;5049027;28;20223;-31
2023/01/18 13:09:48;;;;;;;4.93;2.80;;;5.20;99.90;;;;;;5049186;28;20619;-31
2023/01/18 13:12:16;;;;;;;4.93;2.70;;;5.20;99.90;;;;;;5049102;28;20225;-31
2023/01/18 13:15:00;;;;;;;6.63;2.97;;;5.20;99.90;;;;;;5047345;28;20265;-31
2023/01/18 13:17:40;;;;;;;4.73;2.73;;;5.30;99.90;;;;;;5046956;28;20206;-32
2023/01/18 13:20:10;;;;;;;9.17;2.60;;;5.30;99.90;;;;;;5048817;28;20208;-31
2023/01/18 13:23:09;;;;;;;8.83;3.07;;;5.30;99.90;;;;;;5049143;28;20206;-31
2023/01/18 13:26:03;;;;;;;6.67;3.10;;;5.40;99.90;;;;;;5048900;28;20251;-32
2023/01/18 13:28:38;;;;;;;6.67;3.23;;;5.40;99.90;;;;;;5049007;28;20572;-32
2023/01/18 13:31:08;;;;;;;5.87;3.37;;;5.30;99.90;;;;;;5047777;28;20215;-32
2023/01/18 13:33:54;;;;;;;5.60;3.40;;;5.40;99.90;;;;;;5048918;28;20197;-32
2023/01/18 13:36:24;;;;;;;4.77;3.17;;;5.40;99.90;;;;;;5048558;28;20686;-32
2023/01/18 13:39:13;;;;;;;5.37;3.40;;;5.40;99.90;;;;;;5049382;28;20197;-32
2023/01/18 13:42:01;;;;;;;4.20;3.10;;;5.50;99.90;;;;;;5048372;28;20261;-32
2023/01/18 13:44:39;;;;;;;6.37;3.30;;;5.50;99.90;;;;;;5046696;28;20768;-32
2023/01/18 13:47:38;;;;;;;5.93;3.10;;;5.40;99.90;;;;;;5048486;28;20290;-32
2023/01/18 13:50:27;;;;;;;5.87;3.20;;;5.50;99.90;;;;;;5047289;28;20294;-32